< < Back
Terminal Aerodrome Forecast


Current Version              Previous Versions:   1  2  3  4  5  6  7  8  9  

Terminal Aerodrome Forecast

637
FTUS44 KMOB 031750
TAFMOB
TAF
KMOB 031750Z 0318/0418 VRB05KT P6SM SCT028 BKN035 BKN180
     FM040100 19006KT P6SM FEW050 BKN200
     FM041500 26005KT P6SM VCTS SCT050CB BKN250=

Latest METAR

144
SAUS80 KWBC 041900
MTRMOB
METAR KMOB 041856Z 21008KT 10SM SCT043 BKN250 32/22 A3004 RMK AO2 SLP168
TCU DSNT SE T03220222


USA.gov is the U.S. government's official web portal to all federal, state and local government web resources and services.